createdAt,value
2017-08-01T00:01:07.040Z,5.27
2017-08-01T00:03:35.106Z,8.13
2017-08-01T00:06:04.679Z,4.37
2017-08-01T00:08:33.539Z,4.10
2017-08-01T00:11:02.272Z,5.03
2017-08-01T00:13:32.121Z,5.20
2017-08-01T00:16:00.062Z,3.13
2017-08-01T00:18:28.367Z,8.13
2017-08-01T00:20:57.936Z,5.43
2017-08-01T00:23:29.798Z,7.33
2017-08-01T00:25:58.689Z,5.03
2017-08-01T00:28:27.639Z,3.97
2017-08-01T00:30:58.068Z,6.43
2017-08-01T00:33:26.842Z,5.03
2017-08-01T00:35:59.823Z,4.63
2017-08-01T00:38:27.546Z,3.87
2017-08-01T00:40:55.913Z,5.07
2017-08-01T00:43:25.162Z,4.80
2017-08-01T00:45:53.881Z,8.60
2017-08-01T00:48:25.171Z,3.50
2017-08-01T00:50:54.005Z,8.53
2017-08-01T00:53:23.452Z,3.50
2017-08-01T00:55:53.035Z,5.57
2017-08-01T00:58:20.286Z,6.10
2017-08-01T01:00:51.647Z,5.33
2017-08-01T01:03:21.318Z,6.70
2017-08-01T01:05:50.703Z,4.77
2017-08-01T01:08:19.647Z,8.23
2017-08-01T01:10:48.429Z,3.63
2017-08-01T01:13:16.806Z,3.13
2017-08-01T01:15:46.193Z,9.23
2017-08-01T01:18:14.887Z,4.00
2017-08-01T01:20:46.052Z,8.63
2017-08-01T01:23:14.787Z,6.83
2017-08-01T01:25:44.694Z,5.53
2017-08-01T01:28:14.626Z,6.07
2017-08-01T01:30:43.738Z,5.03
2017-08-01T01:33:13.218Z,5.50
2017-08-01T01:35:42.103Z,5.83
2017-08-01T01:38:09.311Z,4.77
2017-08-01T01:40:37.930Z,5.20
2017-08-01T01:43:06.831Z,4.47
2017-08-01T01:45:35.248Z,3.70
2017-08-01T01:48:01.911Z,4.23
2017-08-01T01:50:29.183Z,4.00
2017-08-01T01:52:55.792Z,5.23
2017-08-01T01:55:24.830Z,6.33
2017-08-01T01:57:52.109Z,3.53
2017-08-01T02:00:19.515Z,3.70
2017-08-01T02:02:50.211Z,4.67
2017-08-01T02:05:17.521Z,6.37
2017-08-01T02:07:48.007Z,3.80
2017-08-01T02:10:20.403Z,6.50
2017-08-01T02:12:48.042Z,4.77
2017-08-01T02:15:19.154Z,4.03
2017-08-01T02:17:49.288Z,6.50
2017-08-01T02:20:16.739Z,3.50
2017-08-01T02:22:44.832Z,5.33
2017-08-01T02:25:14.398Z,10.87
2017-08-01T02:27:43.892Z,5.30
2017-08-01T02:30:12.954Z,6.30
2017-08-01T02:32:39.625Z,10.37
2017-08-01T02:35:06.291Z,4.30
2017-08-01T02:37:32.908Z,4.80
2017-08-01T02:39:59.536Z,8.00
2017-08-01T02:42:26.172Z,5.00
2017-08-01T02:44:52.815Z,10.73
2017-08-01T02:47:19.430Z,4.77
2017-08-01T02:49:49.258Z,8.97
2017-08-01T02:52:15.927Z,7.67
2017-08-01T02:54:42.536Z,5.40
2017-08-01T02:57:09.462Z,5.40
2017-08-01T02:59:36.899Z,4.87
2017-08-01T03:02:04.963Z,4.67
2017-08-01T03:04:34.366Z,5.63
2017-08-01T03:07:02.675Z,4.37
2017-08-01T03:09:29.690Z,6.70
2017-08-01T03:12:00.299Z,4.20
2017-08-01T03:14:27.435Z,4.83
2017-08-01T03:16:56.354Z,4.13
2017-08-01T03:19:24.850Z,7.93
2017-08-01T03:21:54.284Z,6.00
2017-08-01T03:24:24.632Z,5.37
2017-08-01T03:26:53.463Z,10.00
2017-08-01T03:29:22.167Z,9.90
2017-08-01T03:31:52.027Z,7.27
2017-08-01T03:34:19.154Z,7.30
2017-08-01T03:36:47.686Z,6.10
2017-08-01T03:39:16.430Z,8.37
2017-08-01T03:41:44.370Z,9.20
2017-08-01T03:44:14.897Z,6.57
2017-08-01T03:46:43.945Z,5.80
2017-08-01T03:49:12.514Z,7.03
2017-08-01T03:51:41.110Z,7.27
2017-08-01T03:54:10.474Z,6.23
2017-08-01T03:56:39.354Z,8.90
2017-08-01T03:59:08.583Z,5.57
2017-08-01T04:01:36.972Z,5.87
2017-08-01T04:04:05.691Z,7.97
2017-08-01T04:06:33.430Z,6.97
2017-08-01T04:09:03.580Z,6.77
2017-08-01T04:11:32.016Z,11.77
2017-08-01T04:14:00.800Z,4.70
2017-08-01T04:16:28.647Z,5.97
2017-08-01T04:18:56.660Z,10.00
2017-08-01T04:21:26.604Z,4.90
2017-08-01T04:23:55.421Z,7.27
2017-08-01T04:26:24.683Z,6.43
2017-08-01T04:28:53.927Z,10.30
2017-08-01T04:31:22.676Z,6.27
2017-08-01T04:33:49.971Z,6.20
2017-08-01T04:36:21.959Z,12.83
2017-08-01T04:38:51.104Z,6.50
2017-08-01T04:41:18.596Z,8.10
2017-08-01T04:43:48.204Z,5.37
2017-08-01T04:46:18.965Z,6.73
2017-08-01T04:48:46.971Z,9.07
2017-08-01T04:51:14.111Z,6.40
2017-08-01T04:53:42.498Z,6.33
2017-08-01T04:56:11.987Z,7.20
2017-08-01T04:58:40.808Z,7.43
2017-08-01T05:01:10.020Z,8.13
2017-08-01T05:03:37.750Z,9.50
2017-08-01T05:06:07.689Z,5.83
2017-08-01T05:08:35.340Z,8.90
2017-08-01T05:11:04.227Z,8.50
2017-08-01T05:13:33.634Z,8.53
2017-08-01T05:16:01.683Z,6.00
2017-08-01T05:18:29.638Z,13.87
2017-08-01T05:20:58.591Z,7.13
2017-08-01T05:23:27.210Z,9.30
2017-08-01T05:25:56.497Z,8.03
2017-08-01T05:28:25.144Z,7.53
2017-08-01T05:30:53.041Z,6.10
2017-08-01T05:33:22.070Z,7.30
2017-08-01T05:35:50.117Z,10.10
2017-08-01T05:38:19.027Z,9.13
2017-08-01T05:40:47.090Z,9.47
2017-08-01T05:43:16.307Z,15.83
2017-08-01T05:45:45.835Z,9.90
2017-08-01T05:48:14.069Z,9.60
2017-08-01T05:50:42.410Z,11.77
2017-08-01T05:53:10.417Z,8.50
2017-08-01T05:55:40.096Z,11.67
2017-08-01T05:58:08.855Z,12.53
2017-08-01T06:00:41.947Z,9.20
2017-08-01T06:03:11.286Z,9.33
2017-08-01T06:05:40.743Z,13.40
2017-08-01T06:08:09.886Z,11.40
2017-08-01T06:10:40.137Z,7.03
2017-08-01T06:13:10.179Z,9.40
2017-08-01T06:15:39.960Z,8.13
2017-08-01T06:18:08.639Z,11.40
2017-08-01T06:20:37.434Z,14.43
2017-08-01T06:23:10.209Z,13.53
2017-08-01T06:25:38.175Z,13.07
2017-08-01T06:28:07.044Z,12.80
2017-08-01T06:30:38.398Z,14.30
2017-08-01T06:33:10.210Z,12.07
2017-08-01T06:35:38.688Z,9.60
2017-08-01T06:38:06.602Z,17.07
2017-08-01T06:40:34.491Z,16.83
2017-08-01T06:43:02.858Z,18.40
2017-08-01T06:45:32.969Z,11.20
2017-08-01T06:48:02.555Z,15.40
2017-08-01T06:50:34.953Z,14.53
2017-08-01T06:53:05.600Z,11.60
2017-08-01T06:55:33.988Z,12.77
2017-08-01T06:58:02.237Z,14.77
2017-08-01T07:00:33.582Z,14.07
2017-08-01T07:03:03.263Z,12.00
2017-08-01T07:05:32.196Z,12.93
2017-08-01T07:08:02.023Z,20.13
2017-08-01T07:10:32.139Z,16.70
2017-08-01T07:13:00.376Z,17.47
2017-08-01T07:15:28.864Z,15.33
2017-08-01T07:17:58.470Z,11.30
2017-08-01T07:20:25.744Z,14.87
2017-08-01T07:22:55.751Z,18.70
2017-08-01T07:25:27.544Z,16.47
2017-08-01T07:27:57.992Z,14.30
2017-08-01T07:30:27.517Z,15.77
2017-08-01T07:32:56.472Z,16.27
2017-08-01T07:35:26.047Z,19.93
2017-08-01T07:37:55.112Z,13.97
2017-08-01T07:40:25.119Z,19.37
2017-08-01T07:42:53.551Z,17.90
2017-08-01T07:45:22.103Z,18.67
2017-08-01T07:47:50.379Z,12.90
2017-08-01T07:50:18.433Z,14.63
2017-08-01T07:52:46.582Z,14.80
2017-08-01T07:55:16.030Z,18.70
2017-08-01T07:57:46.118Z,18.10
2017-08-01T08:00:14.910Z,21.23
2017-08-01T08:02:43.598Z,15.50
2017-08-01T08:05:12.594Z,19.17
2017-08-01T08:07:39.974Z,15.43
2017-08-01T08:10:08.047Z,11.43
2017-08-01T08:12:36.887Z,18.47
2017-08-01T08:15:05.112Z,14.00
2017-08-01T08:17:34.112Z,14.97
2017-08-01T08:20:03.137Z,14.67
2017-08-01T08:22:34.925Z,13.70
2017-08-01T08:25:03.163Z,12.07
2017-08-01T08:27:32.632Z,15.00
2017-08-01T08:30:00.382Z,15.53
2017-08-01T08:32:29.010Z,13.97
2017-08-01T08:34:58.807Z,15.43
2017-08-01T08:37:27.121Z,17.23
2017-08-01T08:39:55.295Z,13.73
2017-08-01T08:42:25.431Z,11.83
2017-08-01T08:44:54.768Z,14.50
2017-08-01T08:47:22.811Z,10.20
2017-08-01T08:49:51.270Z,13.80
2017-08-01T08:52:20.730Z,19.53
2017-08-01T08:54:49.523Z,15.10
2017-08-01T08:57:18.967Z,12.03
2017-08-01T08:59:47.784Z,11.50
2017-08-01T09:02:14.926Z,15.27
2017-08-01T09:04:43.699Z,19.63
2017-08-01T09:07:12.874Z,10.47
2017-08-01T09:09:41.248Z,11.70
2017-08-01T09:12:11.739Z,14.37
2017-08-01T09:14:39.583Z,14.07
2017-08-01T09:17:08.370Z,14.87
2017-08-01T09:19:36.396Z,13.10
2017-08-01T09:22:06.205Z,18.10
2017-08-01T09:24:35.728Z,11.17
2017-08-01T09:27:04.467Z,13.90
2017-08-01T09:29:33.593Z,10.40
2017-08-01T09:32:03.414Z,10.33
2017-08-01T09:34:32.609Z,9.70
2017-08-01T09:37:00.974Z,10.03
2017-08-01T09:39:29.682Z,12.57
2017-08-01T09:41:57.115Z,20.17
2017-08-01T09:44:25.604Z,12.77
2017-08-01T09:46:56.217Z,12.50
2017-08-01T09:49:24.348Z,14.30
2017-08-01T09:51:52.573Z,17.33
2017-08-01T09:54:20.491Z,12.17
2017-08-01T09:56:47.792Z,13.70
2017-08-01T09:59:16.120Z,13.20
2017-08-01T10:01:45.415Z,12.20
2017-08-01T10:04:13.688Z,11.90
2017-08-01T10:06:43.059Z,13.00
2017-08-01T10:09:13.312Z,10.87
2017-08-01T10:11:42.421Z,14.00
2017-08-01T10:14:12.494Z,11.50
2017-08-01T10:16:41.360Z,13.50
2017-08-01T10:19:11.187Z,12.27
2017-08-01T10:21:39.590Z,13.63
2017-08-01T10:24:08.909Z,12.97
2017-08-01T10:26:37.545Z,19.70
2017-08-01T10:29:06.692Z,15.00
2017-08-01T10:31:35.588Z,19.63
2017-08-01T10:34:04.029Z,14.97
2017-08-01T10:36:32.342Z,17.40
2017-08-01T10:39:00.959Z,21.53
2017-08-01T10:41:27.607Z,22.53
2017-08-01T10:43:54.243Z,17.13
2017-08-01T10:46:20.882Z,15.57
2017-08-01T10:48:47.543Z,21.97
2017-08-01T10:51:14.203Z,17.00
2017-08-01T10:53:40.856Z,17.70
2017-08-01T10:56:07.509Z,14.83
2017-08-01T10:58:34.159Z,19.90
2017-08-01T11:01:00.780Z,38.53
2017-08-01T11:03:27.672Z,20.93
2017-08-01T11:05:54.319Z,16.57
2017-08-01T11:08:20.939Z,20.70
2017-08-01T11:10:47.587Z,18.43
2017-08-01T11:13:14.218Z,16.93
2017-08-01T11:15:40.883Z,17.10
2017-08-01T11:18:07.499Z,16.27
2017-08-01T11:20:34.130Z,21.13
2017-08-01T11:23:00.787Z,14.30
2017-08-01T11:25:27.434Z,16.43
2017-08-01T11:27:54.067Z,34.97
2017-08-01T11:30:20.726Z,19.23
2017-08-01T11:32:48.359Z,22.50
2017-08-01T11:35:16.278Z,19.30
2017-08-01T11:37:42.963Z,21.40
2017-08-01T11:40:09.607Z,14.80
2017-08-01T11:42:36.260Z,15.27
2017-08-01T11:45:02.927Z,18.00
2017-08-01T11:47:29.571Z,22.10
2017-08-01T11:49:56.226Z,20.60
2017-08-01T11:52:22.880Z,20.37
2017-08-01T11:54:49.529Z,19.83
2017-08-01T11:57:16.172Z,21.10
2017-08-01T11:59:42.790Z,17.27
2017-08-01T12:02:09.470Z,17.57
2017-08-01T12:04:36.506Z,18.63
2017-08-01T12:07:07.770Z,18.47
2017-08-01T12:09:37.940Z,20.67
2017-08-01T12:12:06.083Z,18.20
2017-08-01T12:14:36.472Z,21.40
2017-08-01T12:17:06.107Z,27.13
2017-08-01T12:19:34.779Z,19.63
2017-08-01T12:22:03.547Z,18.63
2017-08-01T12:24:30.194Z,18.83
2017-08-01T12:26:56.858Z,22.07
2017-08-01T12:29:23.561Z,15.73
2017-08-01T12:31:50.232Z,19.77
2017-08-01T12:34:16.868Z,15.67
2017-08-01T12:36:43.652Z,42.30
2017-08-01T12:39:10.306Z,21.60
2017-08-01T12:41:36.939Z,20.97
2017-08-01T12:44:03.621Z,29.10
2017-08-01T12:46:30.290Z,19.03
2017-08-01T12:48:56.918Z,19.27
2017-08-01T12:51:23.561Z,19.53
2017-08-01T12:53:50.199Z,21.77
2017-08-01T12:56:16.839Z,19.87
2017-08-01T12:58:43.486Z,19.53
2017-08-01T13:01:10.091Z,17.37
2017-08-01T13:03:36.740Z,18.03
2017-08-01T13:06:03.378Z,26.33
2017-08-01T13:08:30.031Z,23.07
2017-08-01T13:10:56.644Z,22.57
2017-08-01T13:13:23.296Z,25.43
2017-08-01T13:15:49.957Z,29.93
2017-08-01T13:18:16.606Z,21.87
2017-08-01T13:20:43.242Z,19.47
2017-08-01T13:23:09.879Z,22.07
2017-08-01T13:25:36.581Z,19.73
2017-08-01T13:28:03.212Z,19.83
2017-08-01T13:30:29.836Z,22.50
2017-08-01T13:32:56.480Z,28.70
2017-08-01T13:35:23.098Z,23.07
2017-08-01T13:37:49.762Z,24.30
2017-08-01T13:40:16.389Z,18.10
2017-08-01T13:42:43.042Z,27.27
2017-08-01T13:45:09.689Z,23.03
2017-08-01T13:47:36.312Z,20.33
2017-08-01T13:50:02.943Z,27.50
2017-08-01T13:52:29.615Z,29.20
2017-08-01T13:54:56.252Z,26.10
2017-08-01T13:57:22.895Z,18.70
2017-08-01T13:59:49.617Z,16.87
2017-08-01T14:02:16.255Z,22.10
2017-08-01T14:04:42.899Z,21.40
2017-08-01T14:07:09.535Z,24.70
2017-08-01T14:09:36.188Z,18.60
2017-08-01T14:12:02.821Z,18.93
2017-08-01T14:14:29.469Z,24.83
2017-08-01T14:16:56.111Z,21.60
2017-08-01T14:19:22.748Z,19.07
2017-08-01T14:21:49.509Z,19.20
2017-08-01T14:24:16.171Z,18.43
2017-08-01T14:26:42.791Z,18.77
2017-08-01T14:29:09.457Z,19.47
2017-08-01T14:31:36.732Z,36.27
2017-08-01T14:34:03.374Z,22.77
2017-08-01T14:36:30.021Z,22.40
2017-08-01T14:38:56.660Z,18.87
2017-08-01T14:41:23.309Z,17.50
2017-08-01T14:43:49.976Z,16.83
2017-08-01T14:46:16.596Z,22.03
2017-08-01T14:48:43.244Z,23.83
2017-08-01T14:51:09.867Z,20.77
2017-08-01T14:53:36.516Z,25.23
2017-08-01T14:56:03.156Z,19.27
2017-08-01T14:58:29.775Z,26.97
2017-08-01T15:00:56.419Z,25.00
2017-08-01T15:03:23.061Z,20.40
2017-08-01T15:05:49.707Z,23.20
2017-08-01T15:08:16.357Z,24.90
2017-08-01T15:10:42.985Z,20.60
2017-08-01T15:13:09.628Z,16.83
2017-08-01T15:15:36.277Z,18.70
2017-08-01T15:18:02.908Z,24.50
2017-08-01T15:20:29.798Z,24.00
2017-08-01T15:22:56.456Z,18.47
2017-08-01T15:25:23.127Z,17.20
2017-08-01T15:27:49.760Z,25.90
2017-08-01T15:30:16.407Z,31.07
2017-08-01T15:32:43.055Z,22.50
2017-08-01T15:35:09.696Z,22.53
2017-08-01T15:37:36.329Z,25.80
2017-08-01T15:40:02.971Z,20.63
2017-08-01T15:42:29.640Z,21.23
2017-08-01T15:44:56.312Z,19.23
2017-08-01T15:47:22.921Z,24.43
2017-08-01T15:49:49.560Z,19.17
2017-08-01T15:52:17.658Z,26.67
2017-08-01T15:54:44.309Z,21.90
2017-08-01T15:57:10.980Z,16.03
2017-08-01T15:59:37.643Z,14.97
2017-08-01T16:02:04.816Z,11.97
2017-08-01T16:04:31.465Z,15.00
2017-08-01T16:06:58.120Z,14.73
2017-08-01T16:09:24.780Z,15.80
2017-08-01T16:11:51.421Z,11.73
2017-08-01T16:14:18.030Z,10.53
2017-08-01T16:16:44.687Z,9.23
2017-08-01T16:19:11.333Z,13.13
2017-08-01T16:21:37.992Z,8.80
2017-08-01T16:24:04.643Z,14.50
2017-08-01T16:26:31.275Z,9.33
2017-08-01T16:28:57.905Z,9.53
2017-08-01T16:31:24.556Z,6.50
2017-08-01T16:33:51.217Z,13.40
2017-08-01T16:36:17.883Z,8.07
2017-08-01T16:38:44.512Z,10.33
2017-08-01T16:41:11.164Z,8.47
2017-08-01T16:43:37.788Z,8.80
2017-08-01T16:46:04.427Z,13.20
2017-08-01T16:48:31.055Z,7.77
2017-08-01T16:50:57.823Z,10.33
2017-08-01T16:53:24.463Z,8.80
2017-08-01T16:55:51.110Z,14.90
2017-08-01T16:58:17.764Z,10.20
2017-08-01T17:00:44.371Z,6.17
2017-08-01T17:03:10.995Z,6.93
2017-08-01T17:05:37.643Z,9.90
2017-08-01T17:08:04.308Z,13.67
2017-08-01T17:10:30.931Z,11.63
2017-08-01T17:12:57.579Z,8.90
2017-08-01T17:15:24.227Z,7.57
2017-08-01T17:17:50.863Z,6.77
2017-08-01T17:20:17.495Z,9.17
2017-08-01T17:22:44.151Z,12.20
2017-08-01T17:25:10.775Z,13.97
2017-08-01T17:27:37.409Z,13.03
2017-08-01T17:30:04.047Z,7.70
2017-08-01T17:32:30.681Z,10.17
2017-08-01T17:34:57.317Z,12.60
2017-08-01T17:37:23.949Z,11.30
2017-08-01T17:39:50.592Z,10.30
2017-08-01T17:42:17.243Z,7.13
2017-08-01T17:44:43.895Z,8.80
2017-08-01T17:47:10.521Z,12.50
2017-08-01T17:49:37.161Z,11.17
2017-08-01T17:52:03.811Z,16.27
2017-08-01T17:54:30.446Z,14.50
2017-08-01T17:56:57.094Z,17.83
2017-08-01T17:59:23.724Z,10.47
2017-08-01T18:01:50.393Z,15.60
2017-08-01T18:04:17.038Z,18.20
2017-08-01T18:06:43.658Z,12.33
2017-08-01T18:09:10.290Z,13.20
2017-08-01T18:11:36.951Z,22.40
2017-08-01T18:14:03.615Z,13.17
2017-08-01T18:16:30.223Z,13.83
2017-08-01T18:18:57.049Z,11.77
2017-08-01T18:21:23.914Z,10.50
2017-08-01T18:23:50.578Z,21.50
2017-08-01T18:26:18.492Z,10.97
2017-08-01T18:28:45.876Z,15.27
2017-08-01T18:31:12.579Z,15.33
2017-08-01T18:33:39.273Z,17.10
2017-08-01T18:36:06.237Z,30.50
2017-08-01T18:38:32.877Z,19.33
2017-08-01T18:41:01.079Z,25.80
2017-08-01T18:43:27.932Z,27.47
2017-08-01T18:45:54.632Z,23.87
2017-08-01T18:48:21.372Z,27.43
2017-08-01T18:50:48.256Z,20.53
2017-08-01T18:53:14.938Z,24.07
2017-08-01T18:55:41.843Z,24.30
2017-08-01T18:58:08.533Z,23.80
2017-08-01T19:00:35.430Z,23.73
2017-08-01T19:05:39.630Z,22.80
2017-08-01T19:08:09.134Z,18.93
2017-08-01T19:10:37.049Z,13.83
2017-08-01T19:13:03.952Z,14.23
2017-08-01T19:15:30.628Z,12.80
2017-08-01T19:17:57.306Z,13.07
2017-08-01T19:20:24.199Z,11.80
2017-08-01T19:22:51.159Z,12.47
2017-08-01T19:25:18.541Z,18.87
2017-08-01T19:27:46.626Z,14.20
2017-08-01T19:30:14.688Z,9.30
2017-08-01T19:32:42.634Z,11.63
2017-08-01T19:35:10.260Z,11.53
2017-08-01T19:37:43.365Z,9.33
2017-08-01T19:40:11.659Z,14.10
2017-08-01T19:42:39.900Z,11.03
2017-08-01T19:45:08.453Z,15.27
2017-08-01T19:47:39.564Z,8.93
2017-08-01T19:50:10.769Z,14.53
2017-08-01T19:52:38.165Z,12.70
2017-08-01T19:55:06.902Z,13.37
2017-08-01T19:57:36.150Z,14.57
2017-08-01T20:00:05.852Z,13.70
2017-08-01T20:02:34.974Z,15.73
2017-08-01T20:05:03.632Z,18.87
2017-08-01T20:07:32.375Z,17.57
2017-08-01T20:10:01.731Z,18.97
2017-08-01T20:12:32.372Z,14.33
2017-08-01T20:15:01.238Z,17.37
2017-08-01T20:17:31.749Z,20.90
2017-08-01T20:20:00.344Z,19.37
2017-08-01T20:22:29.032Z,14.80
2017-08-01T20:24:57.531Z,11.80
2017-08-01T20:27:26.050Z,16.70
2017-08-01T20:29:55.885Z,14.10
2017-08-01T20:32:23.833Z,12.90
2017-08-01T20:34:52.242Z,15.53
2017-08-01T20:37:21.282Z,13.47
2017-08-01T20:39:50.170Z,14.27
2017-08-01T20:42:17.809Z,16.77
2017-08-01T20:44:45.947Z,19.50
2017-08-01T20:47:14.535Z,13.33
2017-08-01T20:49:43.847Z,12.63
2017-08-01T20:52:15.079Z,15.53
2017-08-01T20:54:44.697Z,12.70
2017-08-01T20:57:13.594Z,21.83
2017-08-01T20:59:43.595Z,15.37
2017-08-01T21:02:11.591Z,19.37
2017-08-01T21:04:40.714Z,12.07
2017-08-01T21:07:10.155Z,11.50
2017-08-01T21:09:38.248Z,16.10
2017-08-01T21:12:06.755Z,15.83
2017-08-01T21:14:36.367Z,14.60
2017-08-01T21:17:04.791Z,12.20
2017-08-01T21:19:34.757Z,13.23
2017-08-01T21:22:04.529Z,10.40
2017-08-01T21:24:33.500Z,12.03
2017-08-01T21:27:03.099Z,11.60
2017-08-01T21:29:31.213Z,12.93
2017-08-01T21:32:00.856Z,17.60
2017-08-01T21:34:29.646Z,10.37
2017-08-01T21:36:57.681Z,13.20
2017-08-01T21:39:27.775Z,16.93
2017-08-01T21:41:56.712Z,11.53
2017-08-01T21:44:26.982Z,11.50
2017-08-01T21:46:58.297Z,12.10
2017-08-01T21:49:29.820Z,11.23
2017-08-01T21:51:59.356Z,11.30
2017-08-01T21:54:32.119Z,14.93
2017-08-01T21:57:00.213Z,14.03
2017-08-01T21:59:29.517Z,9.70
2017-08-01T22:01:57.426Z,14.07
2017-08-01T22:04:27.190Z,9.43
2017-08-01T22:06:56.183Z,19.90
2017-08-01T22:09:28.039Z,11.67
2017-08-01T22:11:56.971Z,13.83
2017-08-01T22:14:25.799Z,10.83
2017-08-01T22:16:53.596Z,9.00
2017-08-01T22:19:22.502Z,13.70
2017-08-01T22:21:51.353Z,12.60
2017-08-01T22:24:20.593Z,10.03
2017-08-01T22:26:49.477Z,10.63
2017-08-01T22:29:19.403Z,11.27
2017-08-01T22:31:48.167Z,9.40
2017-08-01T22:34:18.234Z,9.97
2017-08-01T22:36:46.386Z,6.40
2017-08-01T22:39:14.595Z,8.20
2017-08-01T22:41:43.253Z,12.93
2017-08-01T22:44:13.093Z,10.07
2017-08-01T22:46:43.044Z,8.33
2017-08-01T22:49:11.594Z,24.50
2017-08-01T22:51:40.222Z,12.47
2017-08-01T22:54:08.884Z,17.73
2017-08-01T22:56:37.238Z,15.33
2017-08-01T22:59:05.109Z,7.10
2017-08-01T23:01:33.958Z,7.33
2017-08-01T23:04:03.180Z,10.37
2017-08-01T23:06:31.935Z,7.30
2017-08-01T23:09:00.400Z,11.97
2017-08-01T23:11:32.292Z,9.60
2017-08-01T23:14:01.078Z,8.40
2017-08-01T23:16:31.327Z,11.37
2017-08-01T23:19:00.111Z,13.43
2017-08-01T23:21:29.491Z,8.80
2017-08-01T23:23:59.651Z,9.50
2017-08-01T23:26:30.032Z,9.83
2017-08-01T23:28:59.407Z,9.07
2017-08-01T23:31:27.639Z,8.97
2017-08-01T23:33:56.588Z,8.57
2017-08-01T23:36:25.606Z,8.33
2017-08-01T23:38:55.455Z,9.33
2017-08-01T23:41:24.171Z,11.87
2017-08-01T23:43:54.421Z,17.13
2017-08-01T23:46:24.048Z,9.93
2017-08-01T23:48:53.945Z,15.30
2017-08-01T23:51:22.726Z,15.80
2017-08-01T23:53:51.559Z,15.80
2017-08-01T23:56:19.888Z,13.90
2017-08-01T23:58:48.786Z,8.67
